TimeCST,TemperatureF,Dew PointF,Humidity,Sea Level PressureIn,VisibilityMPH,Wind Direction,Wind SpeedMPH,Gust SpeedMPH,PrecipitationIn,Events,Conditions,WindDirDegrees,DateUTC
12:15 AM,12.2,8.6,85,29.95,10.0,North,15.0,-,N/A,,Overcast,10,2013-12-20 06:15:00
12:35 AM,12.2,6.8,79,29.95,10.0,North,15.0,-,N/A,Snow,Light Snow,360,2013-12-20 06:35:00
12:55 AM,12.2,6.8,79,29.93,10.0,North,15.0,-,N/A,Snow,Light Snow,10,2013-12-20 06:55:00
1:15 AM,12.2,6.8,79,29.92,10.0,NNE,15.0,20.7,N/A,Snow,Light Snow,20,2013-12-20 07:15:00
1:35 AM,12.2,6.8,79,29.92,10.0,NNE,15.0,-,N/A,Rain,Freezing Rain,20,2013-12-20 07:35:00
1:55 AM,12.2,8.6,85,29.91,10.0,NNE,12.7,19.6,N/A,Rain,Freezing Rain,30,2013-12-20 07:55:00
2:15 AM,12.2,8.6,85,29.92,10.0,NNE,13.8,20.7,N/A,Rain,Freezing Rain,20,2013-12-20 08:15:00
2:35 AM,12.2,10.4,92,29.93,10.0,North,10.4,17.3,N/A,,Overcast,10,2013-12-20 08:35:00
2:55 AM,12.2,10.4,92,29.93,10.0,North,9.2,15.0,N/A,,Overcast,10,2013-12-20 08:55:00
3:15 AM,12.2,10.4,92,29.93,10.0,NNE,13.8,-,N/A,,Overcast,20,2013-12-20 09:15:00
3:35 AM,12.2,8.6,85,29.92,10.0,NNE,15.0,-,N/A,,Overcast,20,2013-12-20 09:35:00
3:55 AM,12.2,8.6,85,29.93,10.0,North,12.7,20.7,N/A,Snow,Light Snow,360,2013-12-20 09:55:00
4:15 AM,10.4,6.8,85,29.94,10.0,North,16.1,-,N/A,Snow,Light Snow,350,2013-12-20 10:15:00
4:35 AM,10.4,6.8,85,29.95,10.0,North,12.7,-,N/A,Snow,Light Snow,350,2013-12-20 10:35:00
4:55 AM,10.4,6.8,85,29.95,10.0,North,12.7,-,N/A,Snow,Light Snow,350,2013-12-20 10:55:00
5:15 AM,10.4,6.8,85,29.94,8.0,North,12.7,-,N/A,Snow,Light Snow,350,2013-12-20 11:15:00
5:35 AM,10.4,6.8,85,29.94,9.0,North,12.7,-,N/A,Snow,Light Snow,360,2013-12-20 11:35:00
5:55 AM,10.4,6.8,85,29.94,9.0,North,12.7,-,N/A,Snow,Light Snow,360,2013-12-20 11:55:00
6:15 AM,10.4,6.8,85,29.95,10.0,North,13.8,-,N/A,Snow,Light Snow,10,2013-12-20 12:15:00
6:35 AM,10.4,6.8,85,29.95,10.0,North,10.4,17.3,N/A,Snow,Light Snow,360,2013-12-20 12:35:00
6:55 AM,10.4,6.8,85,29.95,10.0,North,12.7,19.6,N/A,Rain,Freezing Rain,350,2013-12-20 12:55:00
7:15 AM,10.4,6.8,85,29.95,10.0,North,12.7,19.6,N/A,Rain,Freezing Rain,360,2013-12-20 13:15:00
7:35 AM,10.4,5.0,79,29.96,10.0,North,13.8,-,N/A,Snow,Light Snow,350,2013-12-20 13:35:00
7:55 AM,10.4,5.0,79,29.95,9.0,North,13.8,-,N/A,Rain,Freezing Rain,350,2013-12-20 13:55:00
8:15 AM,10.4,5.0,79,29.95,9.0,North,13.8,-,N/A,,Overcast,360,2013-12-20 14:15:00
8:35 AM,10.4,5.0,79,29.96,8.0,North,10.4,-,N/A,Rain,Freezing Rain,360,2013-12-20 14:35:00
8:55 AM,10.4,5.0,79,29.95,9.0,North,11.5,-,N/A,Snow,Light Snow,350,2013-12-20 14:55:00
9:15 AM,10.4,5.0,79,29.94,9.0,North,11.5,-,N/A,Snow,Light Snow,350,2013-12-20 15:15:00
9:35 AM,10.4,5.0,79,29.94,9.0,North,10.4,-,N/A,,Overcast,350,2013-12-20 15:35:00
9:55 AM,10.4,6.8,85,29.93,8.0,North,11.5,-,N/A,Snow,Light Snow,350,2013-12-20 15:55:00
10:15 AM,10.4,6.8,85,29.94,6.0,North,12.7,-,N/A,Snow,Light Snow,350,2013-12-20 16:15:00
10:35 AM,12.2,6.8,79,29.94,8.0,North,9.2,-,N/A,Rain,Freezing Rain,10,2013-12-20 16:35:00
10:55 AM,12.2,6.8,79,29.95,5.0,North,6.9,-,N/A,Snow,Light Snow,10,2013-12-20 16:55:00
11:15 AM,12.2,6.8,79,29.95,3.0,NNW,6.9,-,N/A,Snow,Light Snow,340,2013-12-20 17:15:00
11:35 AM,12.2,6.8,79,29.94,2.0,NNW,8.1,-,N/A,Snow,Light Snow,330,2013-12-20 17:35:00
11:55 AM,12.2,6.8,79,29.93,4.0,North,5.8,-,N/A,Snow,Light Snow,350,2013-12-20 17:55:00
12:15 PM,12.2,8.6,85,29.91,4.0,North,6.9,-,N/A,Snow,Light Snow,350,2013-12-20 18:15:00
12:35 PM,12.2,8.6,85,29.90,3.0,NNW,9.2,-,N/A,Snow,Light Snow,330,2013-12-20 18:35:00
12:55 PM,14.0,8.6,79,29.90,5.0,NNW,9.2,-,N/A,Snow,Light Snow,330,2013-12-20 18:55:00
1:15 PM,14.0,8.6,79,29.89,5.0,NNW,9.2,-,N/A,Snow,Light Snow,330,2013-12-20 19:15:00
1:35 PM,14.0,8.6,79,29.88,7.0,NNW,8.1,-,N/A,Snow,Light Snow,340,2013-12-20 19:35:00
1:55 PM,14.0,8.6,79,29.88,8.0,NNW,9.2,-,N/A,,Overcast,330,2013-12-20 19:55:00
2:15 PM,14.0,8.6,79,29.88,9.0,NW,9.2,-,N/A,,Mostly Cloudy,320,2013-12-20 20:15:00
2:35 PM,14.0,8.6,79,29.87,9.0,NNW,10.4,-,N/A,,Mostly Cloudy,330,2013-12-20 20:35:00
2:55 PM,14.0,10.4,86,29.87,9.0,NNW,12.7,-,N/A,,Mostly Cloudy,340,2013-12-20 20:55:00
3:15 PM,14.0,8.6,79,29.86,9.0,NNW,11.5,-,N/A,,Mostly Cloudy,340,2013-12-20 21:15:00
3:35 PM,14.0,10.4,86,29.86,8.0,NNW,10.4,-,N/A,Snow,Light Snow,340,2013-12-20 21:35:00
3:55 PM,14.0,8.6,79,29.86,9.0,NNW,10.4,-,N/A,,Overcast,340,2013-12-20 21:55:00
4:15 PM,14.0,8.6,79,29.87,9.0,NNW,9.2,-,N/A,,Overcast,340,2013-12-20 22:15:00
4:35 PM,14.0,8.6,79,29.88,10.0,North,6.9,-,N/A,,Overcast,350,2013-12-20 22:35:00
4:55 PM,14.0,8.6,79,29.88,10.0,North,4.6,-,N/A,,Overcast,350,2013-12-20 22:55:00
5:15 PM,14.0,8.6,79,29.89,10.0,Calm,Calm,-,N/A,,Overcast,0,2013-12-20 23:15:00
5:35 PM,14.0,8.6,79,29.89,10.0,Calm,Calm,-,N/A,,Overcast,0,2013-12-20 23:35:00
5:55 PM,14.0,8.6,79,29.88,10.0,Calm,Calm,-,N/A,,Overcast,0,2013-12-20 23:55:00
6:15 PM,14.0,8.6,79,29.87,10.0,Calm,Calm,-,N/A,,Overcast,0,2013-12-21 00:15:00
6:35 PM,14.0,8.6,79,29.87,10.0,West,3.5,-,N/A,,Overcast,280,2013-12-21 00:35:00
6:55 PM,14.0,10.4,86,29.88,10.0,WNW,4.6,-,N/A,,Overcast,300,2013-12-21 00:55:00
7:15 PM,14.0,8.6,79,29.87,10.0,NW,4.6,-,N/A,,Overcast,320,2013-12-21 01:15:00
7:35 PM,14.0,10.4,86,29.87,10.0,Calm,Calm,-,N/A,,Overcast,0,2013-12-21 01:35:00
7:55 PM,14.0,8.6,79,29.85,10.0,Calm,Calm,-,N/A,,Overcast,0,2013-12-21 01:55:00
8:15 PM,14.0,8.6,79,29.84,10.0,Calm,Calm,-,N/A,,Overcast,0,2013-12-21 02:15:00
8:35 PM,12.2,8.6,85,29.83,10.0,NNW,4.6,-,N/A,,Overcast,340,2013-12-21 02:35:00
8:55 PM,10.4,6.8,85,29.84,10.0,NW,4.6,-,N/A,,Overcast,320,2013-12-21 02:55:00
9:15 PM,10.4,6.8,85,29.84,10.0,NW,4.6,-,N/A,,Overcast,310,2013-12-21 03:15:00
9:35 PM,12.2,8.6,85,29.84,10.0,NW,4.6,-,N/A,,Overcast,310,2013-12-21 03:35:00
9:55 PM,12.2,8.6,85,29.83,10.0,Calm,Calm,-,N/A,,Overcast,0,2013-12-21 03:55:00
10:15 PM,12.2,8.6,85,29.84,10.0,WSW,3.5,-,N/A,,Overcast,240,2013-12-21 04:15:00
10:35 PM,10.4,6.8,85,29.84,10.0,Calm,Calm,-,N/A,,Overcast,0,2013-12-21 04:35:00
10:55 PM,10.4,6.8,85,29.84,10.0,SW,4.6,-,N/A,,Overcast,230,2013-12-21 04:55:00
11:15 PM,10.4,6.8,85,29.84,10.0,Calm,Calm,-,N/A,,Overcast,0,2013-12-21 05:15:00
11:35 PM,12.2,8.6,85,29.84,9.0,South,3.5,-,N/A,,Overcast,180,2013-12-21 05:35:00
11:55 PM,12.2,10.4,92,29.85,10.0,SSW,4.6,-,N/A,,Overcast,200,2013-12-21 05:55:00